Time;durP1;ratioP1;P1;durP2;ratioP2;P2;SDS_P1;SDS_P2;PMS_P1;PMS_P2;Temp;Humidity;BMP_temperature;BMP_pressure;BME280_temperature;BME280_humidity;BME280_pressure;Samples;Min_cycle;Max_cycle;Signal;HPM_P1;HPM_P2
2021/10/14 00:00:55;;;;;;;16.05;4.38;;;;;;;;;;5095864;28;20111;-62
2021/10/14 00:03:22;;;;;;;20.98;3.65;;;;;;;;;;5095936;28;20444;-63
2021/10/14 00:05:48;;;;;;;6.65;3.03;;;;;;;;;;5077616;28;20039;-62
2021/10/14 00:08:14;;;;;;;8.88;4.40;;;;;;;;;;5095331;28;20032;-62
2021/10/14 00:10:44;;;;;;;6.55;3.50;;;;;;;;;;5095802;28;20087;-62
2021/10/14 00:13:10;;;;;;;7.95;3.72;;;;;;;;;;5095638;28;20027;-61
2021/10/14 00:15:36;;;;;;;16.50;4.35;;;;;;;;;;5095498;28;20024;-62
2021/10/14 00:18:02;;;;;;;9.55;3.72;;;;;;;;;;5095385;28;20035;-62
2021/10/14 00:20:28;;;;;;;11.38;3.58;;;;;;;;;;5095332;28;20027;-62
2021/10/14 00:22:54;;;;;;;10.93;3.92;;;;;;;;;;5095566;28;20024;-63
2021/10/14 00:25:22;;;;;;;12.95;4.10;;;;;;;;;;5095246;28;20403;-66
2021/10/14 00:27:48;;;;;;;27.52;4.00;;;;;;;;;;5104488;28;20175;-62
2021/10/14 00:30:14;;;;;;;14.30;3.55;;;;;;;;;;5115820;28;20486;-61
2021/10/14 00:32:40;;;;;;;5.00;3.15;;;;;;;;;;5115726;28;20031;-61
2021/10/14 00:35:06;;;;;;;19.42;2.83;;;;;;;;;;5115584;28;20394;-63
2021/10/14 00:37:32;;;;;;;9.75;3.60;;;;;;;;;;5115424;28;20030;-61
2021/10/14 00:39:58;;;;;;;12.75;3.38;;;;;;;;;;5114632;28;20031;-62
2021/10/14 00:42:24;;;;;;;10.45;3.45;;;;;;;;;;5115458;28;20038;-62
2021/10/14 00:44:52;;;;;;;9.65;3.35;;;;;;;;;;5115080;28;20050;-62
2021/10/14 00:47:19;;;;;;;7.63;3.45;;;;;;;;;;5115590;28;20782;-63
2021/10/14 00:49:45;;;;;;;7.45;2.78;;;;;;;;;;5115308;28;20097;-62
2021/10/14 00:52:11;;;;;;;9.65;2.90;;;;;;;;;;5115274;28;20026;-62
2021/10/14 00:54:37;;;;;;;9.50;2.95;;;;;;;;;;5114734;28;20028;-62
2021/10/14 00:57:03;;;;;;;9.95;2.67;;;;;;;;;;5115292;28;20073;-64
2021/10/14 00:59:30;;;;;;;6.90;3.05;;;;;;;;;;5115067;28;20028;-63
2021/10/14 01:01:56;;;;;;;6.95;3.00;;;;;;;;;;5115186;28;20107;-63
2021/10/14 01:04:22;;;;;;;12.10;3.42;;;;;;;;;;5114884;28;20034;-61
2021/10/14 01:06:48;;;;;;;9.43;3.13;;;;;;;;;;5115000;28;20028;-60
2021/10/14 01:09:15;;;;;;;11.77;3.30;;;;;;;;;;5114758;28;20020;-62
2021/10/14 01:11:41;;;;;;;6.82;3.15;;;;;;;;;;5112376;28;20474;-62
2021/10/14 01:14:07;;;;;;;9.65;3.45;;;;;;;;;;5102750;28;20028;-63
2021/10/14 01:16:40;;;;;;;6.75;3.75;;;;;;;;;;5103329;28;20499;-63
2021/10/14 01:19:07;;;;;;;10.45;3.30;;;;;;;;;;5092853;28;20020;-62
2021/10/14 01:21:33;;;;;;;9.07;3.13;;;;;;;;;;5106013;28;20031;-63
2021/10/14 01:23:59;;;;;;;12.75;3.72;;;;;;;;;;5103748;28;20051;-62
2021/10/14 01:26:26;;;;;;;11.50;3.10;;;;;;;;;;5102731;28;20069;-62
2021/10/14 01:28:52;;;;;;;9.65;3.45;;;;;;;;;;5105411;28;20020;-61
2021/10/14 01:31:18;;;;;;;7.63;3.90;;;;;;;;;;5108123;28;20023;-61
2021/10/14 01:33:44;;;;;;;6.20;3.38;;;;;;;;;;5094885;28;20776;-62
2021/10/14 01:36:10;;;;;;;16.92;3.17;;;;;;;;;;5094213;28;20032;-63
2021/10/14 01:38:36;;;;;;;4.43;2.97;;;;;;;;;;5094168;28;20376;-62
2021/10/14 01:41:02;;;;;;;5.00;3.10;;;;;;;;;;5093705;28;20024;-62
2021/10/14 01:43:28;;;;;;;8.52;3.05;;;;;;;;;;5093736;28;20028;-63
2021/10/14 01:45:54;;;;;;;5.88;2.67;;;;;;;;;;5101989;28;20039;-62
2021/10/14 01:48:20;;;;;;;4.63;3.08;;;;;;;;;;5095482;28;20069;-63
2021/10/14 01:50:46;;;;;;;8.50;3.00;;;;;;;;;;5106313;28;20031;-61
2021/10/14 01:53:12;;;;;;;6.82;2.88;;;;;;;;;;5104503;28;20023;-62
2021/10/14 01:55:39;;;;;;;5.72;2.88;;;;;;;;;;5107308;28;20034;-62
2021/10/14 01:58:06;;;;;;;8.10;2.75;;;;;;;;;;5104598;28;20023;-62
2021/10/14 02:00:32;;;;;;;5.70;3.17;;;;;;;;;;5094754;28;20035;-62
2021/10/14 02:02:58;;;;;;;3.80;2.78;;;;;;;;;;5100554;28;20475;-63
2021/10/14 02:05:24;;;;;;;10.35;2.85;;;;;;;;;;5107003;28;20122;-63
2021/10/14 02:07:50;;;;;;;12.45;3.15;;;;;;;;;;5114116;28;20028;-61
2021/10/14 02:10:16;;;;;;;7.22;2.55;;;;;;;;;;5112918;28;20035;-62
2021/10/14 02:12:42;;;;;;;11.80;2.58;;;;;;;;;;5113922;28;20077;-63
2021/10/14 02:15:08;;;;;;;3.45;2.40;;;;;;;;;;5113637;28;20042;-62
2021/10/14 02:17:34;;;;;;;21.58;2.95;;;;;;;;;;5095474;28;20053;-61
2021/10/14 02:20:00;;;;;;;13.60;2.72;;;;;;;;;;5095349;28;20062;-62
2021/10/14 02:22:26;;;;;;;25.23;3.20;;;;;;;;;;5113428;28;20027;-63
2021/10/14 02:24:52;;;;;;;14.98;2.85;;;;;;;;;;5113406;28;20440;-62
2021/10/14 02:27:18;;;;;;;9.30;2.58;;;;;;;;;;5108282;28;20016;-62
2021/10/14 02:29:44;;;;;;;18.30;3.10;;;;;;;;;;5093089;28;20032;-62
2021/10/14 02:32:10;;;;;;;8.20;2.72;;;;;;;;;;5092908;28;20103;-62
2021/10/14 02:34:36;;;;;;;8.63;2.70;;;;;;;;;;5092925;28;20032;-62
2021/10/14 02:37:02;;;;;;;13.02;2.53;;;;;;;;;;5092947;28;20028;-64
2021/10/14 02:39:28;;;;;;;12.77;2.78;;;;;;;;;;5074998;28;20024;-61
2021/10/14 02:41:53;;;;;;;16.92;2.80;;;;;;;;;;5093041;28;20425;-63
2021/10/14 02:44:19;;;;;;;9.13;2.88;;;;;;;;;;5092764;28;20044;-61
2021/10/14 02:46:45;;;;;;;11.10;3.65;;;;;;;;;;5092889;28;20107;-63
2021/10/14 02:49:11;;;;;;;4.20;2.95;;;;;;;;;;5092938;28;20464;-62
2021/10/14 02:51:37;;;;;;;7.45;2.88;;;;;;;;;;5092698;28;20081;-61
2021/10/14 02:54:03;;;;;;;5.70;2.42;;;;;;;;;;5093109;28;20027;-62
2021/10/14 02:56:29;;;;;;;9.25;3.28;;;;;;;;;;5092576;28;20126;-61
2021/10/14 02:58:55;;;;;;;11.73;3.50;;;;;;;;;;5099016;28;20027;-61
2021/10/14 03:01:21;;;;;;;9.30;2.47;;;;;;;;;;5113443;28;20107;-62
2021/10/14 03:03:47;;;;;;;6.78;2.50;;;;;;;;;;5112962;28;20099;-62
2021/10/14 03:06:13;;;;;;;10.70;2.63;;;;;;;;;;5112770;28;20081;-62
2021/10/14 03:08:39;;;;;;;20.35;3.42;;;;;;;;;;5113031;28;20024;-61
2021/10/14 03:11:05;;;;;;;9.05;3.35;;;;;;;;;;5112855;28;20055;-62
2021/10/14 03:13:31;;;;;;;4.00;2.85;;;;;;;;;;5112932;28;20015;-63
2021/10/14 03:15:57;;;;;;;6.55;3.05;;;;;;;;;;5112930;28;20059;-62
2021/10/14 03:18:23;;;;;;;10.75;2.85;;;;;;;;;;5116637;28;20434;-62
2021/10/14 03:20:49;;;;;;;10.30;2.90;;;;;;;;;;5116893;28;20019;-62
2021/10/14 03:23:15;;;;;;;4.03;2.78;;;;;;;;;;5117044;28;20019;-61
2021/10/14 03:25:41;;;;;;;5.22;2.47;;;;;;;;;;5115751;28;20163;-61
2021/10/14 03:28:07;;;;;;;4.65;2.65;;;;;;;;;;5104920;28;20035;-63
2021/10/14 03:30:33;;;;;;;3.72;2.45;;;;;;;;;;5096556;28;20056;-63
2021/10/14 03:32:59;;;;;;;6.57;2.45;;;;;;;;;;5096348;28;20050;-64
2021/10/14 03:35:25;;;;;;;8.30;2.90;;;;;;;;;;5096475;28;20021;-62
2021/10/14 03:37:51;;;;;;;12.07;2.63;;;;;;;;;;5077967;28;20498;-62
2021/10/14 03:40:17;;;;;;;12.68;2.13;;;;;;;;;;5099782;28;20055;-63
2021/10/14 03:42:43;;;;;;;5.07;2.60;;;;;;;;;;5116458;28;20489;-62
2021/10/14 03:45:09;;;;;;;5.57;2.65;;;;;;;;;;5098042;28;20062;-63
2021/10/14 03:47:35;;;;;;;3.97;2.33;;;;;;;;;;5116446;28;20028;-63
2021/10/14 03:50:01;;;;;;;8.13;2.30;;;;;;;;;;5116623;28;20102;-62
2021/10/14 03:52:27;;;;;;;17.00;2.58;;;;;;;;;;5116411;28;20059;-62
2021/10/14 03:54:53;;;;;;;13.63;2.30;;;;;;;;;;5116266;28;20490;-62
2021/10/14 03:57:19;;;;;;;5.22;2.05;;;;;;;;;;5115233;28;20387;-63
2021/10/14 03:59:45;;;;;;;6.65;2.35;;;;;;;;;;5116403;28;20073;-61
2021/10/14 04:02:11;;;;;;;4.13;2.10;;;;;;;;;;5116213;28;20028;-63
2021/10/14 04:04:37;;;;;;;5.72;2.15;;;;;;;;;;5116049;28;20034;-63
2021/10/14 04:07:03;;;;;;;15.13;2.38;;;;;;;;;;5116023;28;20035;-64
2021/10/14 04:09:29;;;;;;;9.32;2.13;;;;;;;;;;5116267;28;20439;-63
2021/10/14 04:11:55;;;;;;;6.15;1.90;;;;;;;;;;5097036;28;20035;-62
2021/10/14 04:14:21;;;;;;;3.17;1.92;;;;;;;;;;5115898;28;20031;-62
2021/10/14 04:16:46;;;;;;;5.32;2.05;;;;;;;;;;5097738;28;20074;-62
2021/10/14 04:19:12;;;;;;;6.32;2.38;;;;;;;;;;5116196;28;20463;-64
2021/10/14 04:21:39;;;;;;;7.75;1.92;;;;;;;;;;5115781;28;20015;-64
2021/10/14 04:24:05;;;;;;;7.80;2.08;;;;;;;;;;5115600;28;20076;-62
2021/10/14 04:26:31;;;;;;;7.20;2.28;;;;;;;;;;5115653;28;20024;-61
2021/10/14 04:28:57;;;;;;;4.10;2.10;;;;;;;;;;5114956;28;20059;-62
2021/10/14 04:31:23;;;;;;;12.15;2.10;;;;;;;;;;5115822;28;20059;-64
2021/10/14 04:33:49;;;;;;;7.38;1.90;;;;;;;;;;5115718;28;20030;-63
2021/10/14 04:36:15;;;;;;;5.07;2.17;;;;;;;;;;5115675;28;20019;-63
2021/10/14 04:38:41;;;;;;;3.83;1.98;;;;;;;;;;5115412;28;20028;-62
2021/10/14 04:41:07;;;;;;;3.50;1.92;;;;;;;;;;5115487;28;20076;-62
2021/10/14 04:43:33;;;;;;;8.00;2.03;;;;;;;;;;5115189;28;20093;-64
2021/10/14 04:45:59;;;;;;;12.50;2.15;;;;;;;;;;5114495;28;20074;-62
2021/10/14 04:48:25;;;;;;;5.28;1.83;;;;;;;;;;5115252;28;20451;-63
2021/10/14 04:50:51;;;;;;;6.03;1.85;;;;;;;;;;5115280;28;20020;-63
2021/10/14 04:53:17;;;;;;;10.95;2.00;;;;;;;;;;5115370;28;20157;-63
2021/10/14 04:55:43;;;;;;;6.40;1.55;;;;;;;;;;5115143;28;20027;-63
2021/10/14 04:58:09;;;;;;;4.95;1.92;;;;;;;;;;5115354;28;20039;-62
2021/10/14 05:00:35;;;;;;;13.95;1.77;;;;;;;;;;5115175;28;20030;-63
2021/10/14 05:03:01;;;;;;;14.10;1.92;;;;;;;;;;5113929;28;20530;-63
2021/10/14 05:05:27;;;;;;;33.20;2.40;;;;;;;;;;5115048;28;20115;-64
2021/10/14 05:07:53;;;;;;;10.02;2.03;;;;;;;;;;5096674;28;20028;-62
2021/10/14 05:10:19;;;;;;;15.95;2.40;;;;;;;;;;5115130;28;20038;-61
2021/10/14 05:12:45;;;;;;;12.75;1.88;;;;;;;;;;5114843;28;20028;-62
2021/10/14 05:15:11;;;;;;;10.70;1.83;;;;;;;;;;5114940;28;20028;-63
2021/10/14 05:17:37;;;;;;;4.57;1.83;;;;;;;;;;5114619;28;20459;-62
2021/10/14 05:20:05;;;;;;;10.52;1.92;;;;;;;;;;5114722;28;20012;-62
2021/10/14 05:22:31;;;;;;;18.25;2.40;;;;;;;;;;5096444;28;20030;-62
2021/10/14 05:24:57;;;;;;;13.75;1.77;;;;;;;;;;5114374;28;20077;-62
2021/10/14 05:27:23;;;;;;;12.25;1.98;;;;;;;;;;5096150;28;20447;-62
2021/10/14 05:29:49;;;;;;;7.32;1.88;;;;;;;;;;5114697;28;20102;-62
2021/10/14 05:32:15;;;;;;;11.43;2.05;;;;;;;;;;5114769;28;20016;-61
2021/10/14 05:34:42;;;;;;;15.30;2.10;;;;;;;;;;5113489;28;20094;-63
2021/10/14 05:37:08;;;;;;;34.15;2.65;;;;;;;;;;5114381;28;20509;-60
2021/10/14 05:39:34;;;;;;;11.05;2.28;;;;;;;;;;5114223;28;20034;-62
2021/10/14 05:41:59;;;;;;;17.00;1.73;;;;;;;;;;5114506;28;20024;-61
2021/10/14 05:44:25;;;;;;;30.75;2.40;;;;;;;;;;5114230;28;20075;-62
2021/10/14 05:46:51;;;;;;;21.33;2.28;;;;;;;;;;5113986;28;20438;-63
2021/10/14 05:49:17;;;;;;;20.85;2.35;;;;;;;;;;5114066;28;20030;-62
2021/10/14 05:51:43;;;;;;;17.23;2.17;;;;;;;;;;5113942;28;20076;-62
2021/10/14 05:54:09;;;;;;;20.48;2.30;;;;;;;;;;5114013;28;20028;-61
2021/10/14 05:56:35;;;;;;;15.63;2.20;;;;;;;;;;5114220;28;20028;-62
2021/10/14 05:59:01;;;;;;;17.95;1.83;;;;;;;;;;5114095;28;20023;-61
2021/10/14 06:01:27;;;;;;;11.38;1.52;;;;;;;;;;5113875;28;20028;-62
2021/10/14 06:03:54;;;;;;;27.40;1.90;;;;;;;;;;5107039;28;20043;-63
2021/10/14 06:06:21;;;;;;;20.75;2.10;;;;;;;;;;5104629;28;20386;-62
2021/10/14 06:08:47;;;;;;;17.42;2.10;;;;;;;;;;5103141;28;20853;-61
2021/10/14 06:11:13;;;;;;;16.23;2.30;;;;;;;;;;5109869;28;20114;-61
2021/10/14 06:13:39;;;;;;;11.38;1.73;;;;;;;;;;5112973;28;20110;-62
2021/10/14 06:16:06;;;;;;;13.13;1.92;;;;;;;;;;5113676;28;20043;-61
2021/10/14 06:18:33;;;;;;;6.90;1.85;;;;;;;;;;5113708;28;20056;-60
2021/10/14 06:20:59;;;;;;;15.30;2.00;;;;;;;;;;5112417;28;20044;-59
2021/10/14 06:23:25;;;;;;;14.52;2.10;;;;;;;;;;5113208;28;20132;-62
2021/10/14 06:25:51;;;;;;;14.82;2.20;;;;;;;;;;5113149;28;20152;-60
2021/10/14 06:28:17;;;;;;;10.25;2.33;;;;;;;;;;5100211;28;20032;-60
2021/10/14 06:30:43;;;;;;;7.97;1.90;;;;;;;;;;5093133;28;20395;-59
2021/10/14 06:33:09;;;;;;;14.13;2.38;;;;;;;;;;5093071;28;20496;-63
2021/10/14 06:35:35;;;;;;;8.45;2.28;;;;;;;;;;5093074;28;20032;-62
2021/10/14 06:38:01;;;;;;;10.77;2.53;;;;;;;;;;5092927;28;20028;-60
2021/10/14 06:40:27;;;;;;;5.72;1.98;;;;;;;;;;5074255;28;20551;-63
2021/10/14 06:42:53;;;;;;;10.63;2.30;;;;;;;;;;5093028;28;20081;-60
2021/10/14 06:45:19;;;;;;;7.72;1.90;;;;;;;;;;5074260;28;20046;-63
2021/10/14 06:47:45;;;;;;;7.25;2.10;;;;;;;;;;5092073;28;20025;-62
2021/10/14 06:50:11;;;;;;;6.63;2.17;;;;;;;;;;5092471;28;20032;-64
2021/10/14 06:52:37;;;;;;;11.30;2.55;;;;;;;;;;5073965;28;20115;-61
2021/10/14 06:55:03;;;;;;;4.50;2.22;;;;;;;;;;5092671;28;20028;-63
2021/10/14 06:57:29;;;;;;;5.97;2.40;;;;;;;;;;5092570;28;20077;-60
2021/10/14 06:59:55;;;;;;;5.40;2.17;;;;;;;;;;5092261;28;20099;-60
2021/10/14 07:02:21;;;;;;;6.15;2.05;;;;;;;;;;5077480;28;20438;-60
2021/10/14 07:04:47;;;;;;;16.38;2.30;;;;;;;;;;5079934;28;20561;-62
2021/10/14 07:07:13;;;;;;;9.88;2.42;;;;;;;;;;5102245;28;20050;-60
2021/10/14 07:09:39;;;;;;;20.08;2.60;;;;;;;;;;5104632;28;20567;-61
2021/10/14 07:12:10;;;;;;;12.40;2.60;;;;;;;;;;5091553;28;20031;-60
2021/10/14 07:14:37;;;;;;;21.00;2.72;;;;;;;;;;5110414;28;20028;-60
2021/10/14 07:17:03;;;;;;;10.52;2.70;;;;;;;;;;5112369;28;20168;-66
2021/10/14 07:19:29;;;;;;;9.63;2.65;;;;;;;;;;5112898;28;20132;-61
2021/10/14 07:21:55;;;;;;;20.67;3.35;;;;;;;;;;5113024;28;20076;-61
2021/10/14 07:24:21;;;;;;;14.73;2.88;;;;;;;;;;5112245;28;20107;-60
2021/10/14 07:26:47;;;;;;;13.88;2.80;;;;;;;;;;5104247;28;20031;-61
2021/10/14 07:29:13;;;;;;;13.63;3.13;;;;;;;;;;5092610;28;20387;-61
2021/10/14 07:31:40;;;;;;;24.95;2.85;;;;;;;;;;5092674;28;20020;-60
2021/10/14 07:34:06;;;;;;;12.70;2.80;;;;;;;;;;5092296;28;20020;-60
2021/10/14 07:36:32;;;;;;;35.58;3.10;;;;;;;;;;5092498;28;20089;-60
2021/10/14 07:39:00;;;;;;;17.42;2.80;;;;;;;;;;5092338;28;20034;-60
2021/10/14 07:41:26;;;;;;;9.40;2.83;;;;;;;;;;5092365;28;20048;-60
2021/10/14 07:43:52;;;;;;;19.33;3.60;;;;;;;;;;5105246;28;20048;-61
2021/10/14 07:46:18;;;;;;;26.45;3.80;;;;;;;;;;5112672;28;20329;-61
2021/10/14 07:48:44;;;;;;;25.52;4.00;;;;;;;;;;5112429;28;20070;-61
2021/10/14 07:51:10;;;;;;;34.78;4.00;;;;;;;;;;5112522;28;20027;-61
2021/10/14 07:53:36;;;;;;;39.00;4.82;;;;;;;;;;5112394;28;20024;-61
2021/10/14 07:56:02;;;;;;;22.52;4.97;;;;;;;;;;5094109;28;20015;-61
2021/10/14 07:58:28;;;;;;;21.73;4.78;;;;;;;;;;5112656;28;20028;-61
2021/10/14 08:00:54;;;;;;;20.42;5.30;;;;;;;;;;5093674;28;20031;-61
2021/10/14 08:03:20;;;;;;;23.20;5.22;;;;;;;;;;5092048;28;20032;-61
2021/10/14 08:05:46;;;;;;;39.33;6.45;;;;;;;;;;5095848;28;20036;-63
2021/10/14 08:08:12;;;;;;;23.60;5.55;;;;;;;;;;5095947;28;20073;-62
2021/10/14 08:10:38;;;;;;;28.63;5.78;;;;;;;;;;5095750;28;20031;-61
2021/10/14 08:13:04;;;;;;;26.40;5.35;;;;;;;;;;5095697;28;20032;-63
2021/10/14 08:15:30;;;;;;;20.00;5.05;;;;;;;;;;5095710;28;20024;-62
2021/10/14 08:17:57;;;;;;;32.72;5.70;;;;;;;;;;5107785;28;20034;-62
2021/10/14 08:20:23;;;;;;;22.17;5.07;;;;;;;;;;5116070;28;20066;-64
2021/10/14 08:22:49;;;;;;;28.48;5.30;;;;;;;;;;5115868;28;20377;-63
2021/10/14 08:25:16;;;;;;;28.08;5.68;;;;;;;;;;5115600;28;20035;-63
2021/10/14 08:27:43;;;;;;;29.08;4.90;;;;;;;;;;5107381;28;20028;-62
2021/10/14 08:30:09;;;;;;;17.02;4.60;;;;;;;;;;5095424;28;20020;-63
2021/10/14 08:32:35;;;;;;;15.20;5.00;;;;;;;;;;5095199;28;20028;-63
2021/10/14 08:35:01;;;;;;;20.67;4.70;;;;;;;;;;5095146;28;20063;-62
2021/10/14 08:37:29;;;;;;;19.10;5.03;;;;;;;;;;5095206;28;20089;-63
2021/10/14 08:39:55;;;;;;;9.70;4.55;;;;;;;;;;5095278;28;20021;-62
2021/10/14 08:42:21;;;;;;;23.17;4.80;;;;;;;;;;5095065;28;20047;-63
2021/10/14 08:44:48;;;;;;;15.85;4.85;;;;;;;;;;5094593;28;20055;-63
2021/10/14 08:47:15;;;;;;;9.15;4.20;;;;;;;;;;5095019;28;20517;-63
2021/10/14 08:49:44;;;;;;;8.90;4.20;;;;;;;;;;5094910;28;20103;-64
2021/10/14 08:52:10;;;;;;;8.70;3.97;;;;;;;;;;5094959;28;20420;-62
2021/10/14 08:54:37;;;;;;;7.82;3.58;;;;;;;;;;5094866;28;20024;-62
2021/10/14 08:57:03;;;;;;;10.25;3.58;;;;;;;;;;5094886;28;20046;-64
2021/10/14 08:59:29;;;;;;;8.30;3.95;;;;;;;;;;5094836;28;20020;-64
2021/10/14 09:02:04;;;;;;;9.88;3.85;;;;;;;;;;5076326;28;20043;-63
2021/10/14 09:04:32;;;;;;;9.65;3.97;;;;;;;;;;5094714;28;20062;-64
2021/10/14 09:07:18;;;;;;;6.30;3.63;;;;;;;;;;5094271;28;20032;-63
2021/10/14 09:09:45;;;;;;;6.32;3.72;;;;;;;;;;5103305;28;20031;-62
2021/10/14 09:12:11;;;;;;;9.45;3.55;;;;;;;;;;5106138;28;20027;-63
2021/10/14 09:14:53;;;;;;;7.45;3.35;;;;;;;;;;5099816;28;20020;-62
2021/10/14 09:17:19;;;;;;;5.45;3.17;;;;;;;;;;5104875;28;20020;-62
2021/10/14 09:19:45;;;;;;;5.20;3.20;;;;;;;;;;5103253;28;20024;-62
2021/10/14 09:22:12;;;;;;;3.33;2.92;;;;;;;;;;5105128;28;20032;-63
2021/10/14 09:24:39;;;;;;;6.93;2.92;;;;;;;;;;5103379;28;20028;-63
2021/10/14 09:27:07;;;;;;;6.63;3.00;;;;;;;;;;5103810;28;20081;-62
2021/10/14 09:29:34;;;;;;;6.70;3.13;;;;;;;;;;5102976;28;20043;-62
2021/10/14 09:32:05;;;;;;;4.55;2.80;;;;;;;;;;5112928;28;20051;-62
2021/10/14 09:34:36;;;;;;;7.10;3.00;;;;;;;;;;5108397;28;20132;-62
2021/10/14 09:37:25;;;;;;;7.07;2.75;;;;;;;;;;5104692;28;20039;-63
2021/10/14 09:39:58;;;;;;;6.28;2.90;;;;;;;;;;5100728;28;20036;-63
2021/10/14 09:42:43;;;;;;;7.32;3.05;;;;;;;;;;5114480;28;20107;-63
2021/10/14 09:45:25;;;;;;;3.53;2.40;;;;;;;;;;5114062;28;20081;-63
2021/10/14 09:48:03;;;;;;;6.40;2.55;;;;;;;;;;5114338;28;20024;-63
2021/10/14 09:50:30;;;;;;;5.32;2.30;;;;;;;;;;5114296;28;20035;-62
2021/10/14 09:52:56;;;;;;;2.83;2.20;;;;;;;;;;5113908;28;20051;-63
2021/10/14 09:55:23;;;;;;;6.32;2.40;;;;;;;;;;5114262;28;20491;-62
2021/10/14 09:57:48;;;;;;;5.13;2.30;;;;;;;;;;5113834;28;20072;-62
2021/10/14 10:00:14;;;;;;;2.50;2.30;;;;;;;;;;5107607;28;20028;-62
2021/10/14 10:02:41;;;;;;;3.60;2.38;;;;;;;;;;5093186;28;20051;-62
2021/10/14 10:05:07;;;;;;;3.15;2.20;;;;;;;;;;5093588;28;20513;-60
2021/10/14 10:07:36;;;;;;;3.58;2.40;;;;;;;;;;5093601;28;20444;-61
2021/10/14 10:10:02;;;;;;;4.05;2.20;;;;;;;;;;5075279;28;20036;-61
2021/10/14 10:12:28;;;;;;;4.82;2.10;;;;;;;;;;5093260;28;20084;-61
2021/10/14 10:14:54;;;;;;;3.92;2.38;;;;;;;;;;5093450;28;20031;-62
2021/10/14 10:17:36;;;;;;;3.35;2.10;;;;;;;;;;5100613;28;20024;-61
2021/10/14 10:20:02;;;;;;;10.05;2.33;;;;;;;;;;5110070;28;20017;-62
2021/10/14 10:22:34;;;;;;;4.32;2.20;;;;;;;;;;5102008;28;20023;-60
2021/10/14 10:25:30;;;;;;;4.20;1.88;;;;;;;;;;5103684;28;20035;-61
2021/10/14 10:28:01;;;;;;;3.05;2.10;;;;;;;;;;5073314;28;20096;-63
2021/10/14 10:30:27;;;;;;;4.30;1.97;;;;;;;;;;5099927;28;20012;-60
2021/10/14 10:32:54;;;;;;;4.40;2.25;;;;;;;;;;5112171;28;20260;-60
2021/10/14 10:35:39;;;;;;;5.43;2.17;;;;;;;;;;5095230;28;20028;-61
2021/10/14 10:38:14;;;;;;;5.13;2.78;;;;;;;;;;5093015;28;20459;-62
2021/10/14 10:40:40;;;;;;;3.85;2.10;;;;;;;;;;5093027;28;20051;-62
2021/10/14 10:43:26;;;;;;;4.93;2.47;;;;;;;;;;5074858;28;20031;-62
2021/10/14 10:45:56;;;;;;;6.10;2.15;;;;;;;;;;5083049;28;20039;-60
2021/10/14 10:48:40;;;;;;;3.97;2.28;;;;;;;;;;5083822;28;20458;-60
2021/10/14 10:51:06;;;;;;;2.53;2.20;;;;;;;;;;5083677;28;20099;-61
2021/10/14 10:53:36;;;;;;;3.25;2.28;;;;;;;;;;5066560;28;20024;-62
2021/10/14 10:56:03;;;;;;;3.58;1.95;;;;;;;;;;5081921;28;20008;-62
2021/10/14 10:58:32;;;;;;;5.88;2.40;;;;;;;;;;5084758;28;20480;-61
2021/10/14 11:00:58;;;;;;;4.05;2.15;;;;;;;;;;5083457;28;20039;-61
2021/10/14 11:03:25;;;;;;;3.20;2.13;;;;;;;;;;5082765;28;20376;-61
2021/10/14 11:05:56;;;;;;;4.22;2.00;;;;;;;;;;5082476;28;20036;-60
2021/10/14 11:08:23;;;;;;;2.63;1.92;;;;;;;;;;5082325;28;20490;-62
2021/10/14 11:10:51;;;;;;;5.63;2.25;;;;;;;;;;5085126;28;20046;-61
2021/10/14 11:13:17;;;;;;;2.90;1.90;;;;;;;;;;5092660;28;20232;-62
2021/10/14 11:15:54;;;;;;;5.32;2.20;;;;;;;;;;5092482;28;20028;-60
2021/10/14 11:18:20;;;;;;;3.53;1.80;;;;;;;;;;5076976;28;20035;-62
2021/10/14 11:20:59;;;;;;;3.50;1.65;;;;;;;;;;5072366;28;20019;-60
2021/10/14 11:23:27;;;;;;;3.58;2.00;;;;;;;;;;5072219;28;20028;-62
2021/10/14 11:26:01;;;;;;;3.15;2.00;;;;;;;;;;5072164;28;20472;-62
2021/10/14 11:28:28;;;;;;;2.78;1.95;;;;;;;;;;5072447;28;20531;-60
2021/10/14 11:30:57;;;;;;;3.60;1.73;;;;;;;;;;5072163;28;20021;-60
2021/10/14 11:33:32;;;;;;;2.75;1.70;;;;;;;;;;5072073;28;20021;-61
2021/10/14 11:36:02;;;;;;;1.80;1.45;;;;;;;;;;5072384;28;20043;-61
2021/10/14 11:38:28;;;;;;;8.43;1.95;;;;;;;;;;5074043;28;20027;-60
2021/10/14 11:40:55;;;;;;;5.03;1.65;;;;;;;;;;5087011;28;20042;-61
2021/10/14 11:43:29;;;;;;;9.00;1.70;;;;;;;;;;5096413;28;20024;-60
2021/10/14 11:45:56;;;;;;;3.97;1.70;;;;;;;;;;5091297;28;20122;-59
2021/10/14 11:48:34;;;;;;;5.13;1.70;;;;;;;;;;5073141;28;20036;-60
2021/10/14 11:51:01;;;;;;;6.95;1.75;;;;;;;;;;5075887;28;20033;-61
2021/10/14 11:53:27;;;;;;;13.07;1.98;;;;;;;;;;5075934;28;20024;-61
2021/10/14 11:55:59;;;;;;;3.42;1.73;;;;;;;;;;5075877;28;20021;-60
2021/10/14 11:58:25;;;;;;;2.90;1.80;;;;;;;;;;5076021;28;20039;-60
2021/10/14 12:00:51;;;;;;;9.68;1.60;;;;;;;;;;5090555;28;20077;-61
2021/10/14 12:03:18;;;;;;;1.85;1.50;;;;;;;;;;5095858;28;20059;-62
2021/10/14 12:05:44;;;;;;;7.95;1.65;;;;;;;;;;5095782;28;20464;-60
2021/10/14 12:08:10;;;;;;;6.78;1.85;;;;;;;;;;5095788;28;20099;-61
2021/10/14 12:10:48;;;;;;;5.13;1.75;;;;;;;;;;5095782;28;20442;-60
2021/10/14 12:13:15;;;;;;;3.72;1.77;;;;;;;;;;5095756;28;20031;-61
2021/10/14 12:15:41;;;;;;;6.40;1.92;;;;;;;;;;5095595;28;20024;-61
2021/10/14 12:18:07;;;;;;;5.43;1.83;;;;;;;;;;5095452;28;20024;-61
2021/10/14 12:20:33;;;;;;;5.63;1.50;;;;;;;;;;5095689;28;20031;-61
2021/10/14 12:23:04;;;;;;;5.13;1.95;;;;;;;;;;5095504;28;20035;-60
2021/10/14 12:25:39;;;;;;;5.53;1.85;;;;;;;;;;5095555;28;20422;-60
2021/10/14 12:28:05;;;;;;;2.72;1.48;;;;;;;;;;5083790;28;20016;-61
2021/10/14 12:30:33;;;;;;;4.10;1.70;;;;;;;;;;5073917;28;20029;-61
2021/10/14 12:33:17;;;;;;;7.07;1.80;;;;;;;;;;5081531;28;20035;-61
2021/10/14 12:35:52;;;;;;;15.73;1.58;;;;;;;;;;5086324;28;20025;-61
2021/10/14 12:38:19;;;;;;;5.32;1.80;;;;;;;;;;5084040;28;20028;-61
2021/10/14 12:41:02;;;;;;;4.50;1.40;;;;;;;;;;5081343;28;20063;-61
2021/10/14 12:43:36;;;;;;;8.55;1.52;;;;;;;;;;5083983;28;20024;-61
2021/10/14 12:46:20;;;;;;;8.07;1.67;;;;;;;;;;5086344;28;20042;-60
2021/10/14 12:51:19;;;;;;;9.13;1.70;;;;;;;;;;5082648;28;20032;-61
2021/10/14 12:53:50;;;;;;;9.52;1.75;;;;;;;;;;5082928;28;20024;-61
2021/10/14 12:56:17;;;;;;;11.38;1.73;;;;;;;;;;5083473;28;20023;-61
2021/10/14 12:58:44;;;;;;;9.68;1.70;;;;;;;;;;5081320;28;20119;-60
2021/10/14 13:01:12;;;;;;;8.68;1.65;;;;;;;;;;5081511;28;20416;-61
2021/10/14 13:03:38;;;;;;;17.67;1.83;;;;;;;;;;5081846;28;20027;-60
2021/10/14 14:00:12;;;;;;;38.72;2.90;;;;;;;;;;5084857;27;20974;-66
2021/10/14 14:02:38;;;;;;;26.77;2.47;;;;;;;;;;5086911;28;20082;-67
2021/10/14 14:05:05;;;;;;;21.48;2.65;;;;;;;;;;5074183;28;20049;-65
2021/10/14 14:07:31;;;;;;;15.63;2.70;;;;;;;;;;5080323;28;20021;-65
2021/10/14 14:09:58;;;;;;;26.35;2.78;;;;;;;;;;5080649;28;20108;-65
2021/10/14 14:12:25;;;;;;;16.08;2.40;;;;;;;;;;5077832;28;20099;-64
2021/10/14 14:14:51;;;;;;;28.13;2.33;;;;;;;;;;5083686;28;20085;-66
2021/10/14 14:17:17;;;;;;;29.95;2.72;;;;;;;;;;5079960;28;20027;-65
2021/10/14 14:19:43;;;;;;;19.02;2.63;;;;;;;;;;5071425;28;20032;-64
2021/10/14 14:22:11;;;;;;;28.00;2.55;;;;;;;;;;5089640;28;20356;-67
2021/10/14 14:24:37;;;;;;;32.13;2.40;;;;;;;;;;5089154;28;20507;-66
2021/10/14 14:27:05;;;;;;;9.80;2.47;;;;;;;;;;5088973;28;20043;-69
2021/10/14 14:29:31;;;;;;;17.67;2.60;;;;;;;;;;5095423;28;20471;-67
2021/10/14 14:32:01;;;;;;;7.13;2.35;;;;;;;;;;5088285;28;20023;-67
2021/10/14 14:34:27;;;;;;;19.90;2.08;;;;;;;;;;5100094;28;20036;-68
2021/10/14 14:36:53;;;;;;;7.93;2.00;;;;;;;;;;5097765;28;20028;-68
2021/10/14 14:39:19;;;;;;;19.55;2.40;;;;;;;;;;5096213;28;20032;-66
2021/10/14 14:41:45;;;;;;;5.15;1.88;;;;;;;;;;5081611;28;20019;-66
2021/10/14 14:44:12;;;;;;;9.77;2.55;;;;;;;;;;5090585;28;20052;-68
2021/10/14 14:46:38;;;;;;;11.05;2.58;;;;;;;;;;5088074;28;20016;-67
2021/10/14 14:49:05;;;;;;;18.20;3.00;;;;;;;;;;5084746;28;20283;-69
2021/10/14 14:51:31;;;;;;;16.30;4.75;;;;;;;;;;5087827;28;20341;-68
2021/10/14 14:53:57;;;;;;;14.93;5.15;;;;;;;;;;5069063;28;20487;-67
2021/10/14 14:56:24;;;;;;;12.98;5.45;;;;;;;;;;5095628;28;20043;-67
2021/10/14 14:58:50;;;;;;;19.20;6.10;;;;;;;;;;5088274;28;20098;-69
2021/10/14 15:01:16;;;;;;;12.48;4.70;;;;;;;;;;5070005;28;20043;-67
2021/10/14 15:03:43;;;;;;;12.35;5.45;;;;;;;;;;5088044;28;20021;-70
2021/10/14 15:06:09;;;;;;;10.45;5.13;;;;;;;;;;5088306;28;20498;-66
2021/10/14 15:08:35;;;;;;;12.18;5.28;;;;;;;;;;5098342;28;20471;-64
2021/10/14 15:11:01;;;;;;;19.40;4.95;;;;;;;;;;5078335;28;20063;-69
2021/10/14 15:13:30;;;;;;;10.18;4.53;;;;;;;;;;5074731;28;20020;-68
2021/10/14 15:15:57;;;;;;;11.82;4.18;;;;;;;;;;5074310;28;20021;-69
2021/10/14 15:18:23;;;;;;;7.57;4.13;;;;;;;;;;5074586;28;20029;-67
2021/10/14 15:20:49;;;;;;;7.88;4.13;;;;;;;;;;5074568;28;20577;-64
2021/10/14 15:23:16;;;;;;;7.15;4.00;;;;;;;;;;5073999;28;20024;-69
2021/10/14 15:25:42;;;;;;;10.10;4.43;;;;;;;;;;5074234;28;20024;-70
2021/10/14 15:28:08;;;;;;;5.68;3.50;;;;;;;;;;5056493;28;20082;-65
2021/10/14 15:30:37;;;;;;;11.88;3.80;;;;;;;;;;5074334;28;20039;-68
2021/10/14 15:33:03;;;;;;;11.20;3.92;;;;;;;;;;5074532;28;20012;-70
2021/10/14 15:35:29;;;;;;;7.65;3.88;;;;;;;;;;5074178;28;20043;-68